Time;durP1;ratioP1;P1;durP2;ratioP2;P2;SDS_P1;SDS_P2;PMS_P1;PMS_P2;Temp;Humidity;BMP_temperature;BMP_pressure;BME280_temperature;BME280_humidity;BME280_pressure;Samples;Min_cycle;Max_cycle;Signal;HPM_P1;HPM_P2
2024/03/29 00:00:35;;;;;;;13.35;8.07;;;;;;;;;;5007591;28;20061;-54
2024/03/29 00:03:01;;;;;;;13.52;8.45;;;;;;;;;;5007720;28;20060;-55
2024/03/29 00:05:27;;;;;;;13.25;8.05;;;;;;;;;;5008360;28;20049;-55
2024/03/29 00:07:53;;;;;;;13.48;8.18;;;;;;;;;;5012944;28;20155;-54
2024/03/29 00:10:19;;;;;;;13.25;7.70;;;;;;;;;;5029823;28;20602;-55
2024/03/29 00:12:45;;;;;;;13.13;7.70;;;;;;;;;;5029178;28;20046;-54
2024/03/29 00:15:11;;;;;;;13.23;7.80;;;;;;;;;;5030450;28;20033;-54
2024/03/29 00:17:37;;;;;;;12.85;7.47;;;;;;;;;;5030443;28;20365;-56
2024/03/29 00:20:03;;;;;;;13.18;7.78;;;;;;;;;;5029913;28;20075;-55
2024/03/29 00:22:29;;;;;;;13.30;7.78;;;;;;;;;;5032252;28;20025;-54
2024/03/29 00:24:56;;;;;;;13.30;7.90;;;;;;;;;;5031064;28;20029;-58
2024/03/29 00:27:25;;;;;;;13.27;7.90;;;;;;;;;;5033129;28;20021;-57
2024/03/29 00:29:53;;;;;;;13.10;7.68;;;;;;;;;;5032205;28;20031;-52
2024/03/29 00:32:19;;;;;;;13.38;8.00;;;;;;;;;;5030396;28;20365;-55
2024/03/29 00:34:45;;;;;;;13.38;7.97;;;;;;;;;;5030363;28;20022;-56
2024/03/29 00:37:11;;;;;;;13.52;8.30;;;;;;;;;;5030406;28;20104;-55
2024/03/29 00:39:37;;;;;;;13.48;8.23;;;;;;;;;;5030373;28;20033;-58
2024/03/29 00:42:06;;;;;;;13.38;7.95;;;;;;;;;;5030403;28;20025;-58
2024/03/29 00:44:32;;;;;;;13.32;7.90;;;;;;;;;;5030350;28;20049;-58
2024/03/29 00:46:59;;;;;;;13.23;7.78;;;;;;;;;;5031103;28;20403;-58
2024/03/29 00:49:25;;;;;;;13.20;7.63;;;;;;;;;;5031410;28;20022;-55
2024/03/29 00:51:51;;;;;;;12.85;7.50;;;;;;;;;;5029677;28;20018;-56
2024/03/29 00:54:18;;;;;;;12.90;7.50;;;;;;;;;;5029538;28;20506;-56
2024/03/29 00:56:44;;;;;;;12.85;7.43;;;;;;;;;;5030307;28;20113;-56
2024/03/29 00:59:10;;;;;;;12.70;7.40;;;;;;;;;;5030421;28;20053;-57
2024/03/29 01:01:36;;;;;;;13.35;7.90;;;;;;;;;;5028713;28;20027;-56
2024/03/29 01:04:02;;;;;;;13.27;7.80;;;;;;;;;;5029552;28;20081;-52
2024/03/29 01:06:28;;;;;;;13.18;7.70;;;;;;;;;;5029490;28;20373;-52
2024/03/29 01:08:54;;;;;;;13.13;7.70;;;;;;;;;;5029704;28;20029;-54
2024/03/29 01:11:20;;;;;;;13.25;7.75;;;;;;;;;;5029419;28;20396;-54
2024/03/29 01:13:46;;;;;;;12.85;7.45;;;;;;;;;;5029015;28;20121;-56
2024/03/29 01:16:12;;;;;;;13.15;7.60;;;;;;;;;;5029475;28;20069;-56
2024/03/29 01:18:38;;;;;;;13.10;7.70;;;;;;;;;;5029741;28;20395;-55
2024/03/29 01:21:04;;;;;;;12.68;7.32;;;;;;;;;;5029786;28;20026;-51
2024/03/29 01:23:30;;;;;;;12.85;7.50;;;;;;;;;;5029690;28;20029;-54
2024/03/29 01:25:56;;;;;;;12.95;7.55;;;;;;;;;;5029726;28;20153;-55
2024/03/29 01:28:22;;;;;;;12.63;7.35;;;;;;;;;;5029912;28;20033;-51
2024/03/29 01:30:52;;;;;;;13.00;7.55;;;;;;;;;;5028747;28;20099;-55
2024/03/29 01:33:18;;;;;;;13.00;7.63;;;;;;;;;;5029197;28;20041;-57
2024/03/29 01:35:44;;;;;;;13.20;7.70;;;;;;;;;;5029210;28;20091;-52
2024/03/29 01:38:10;;;;;;;13.05;7.57;;;;;;;;;;5029947;28;20022;-56
2024/03/29 01:40:36;;;;;;;12.75;7.40;;;;;;;;;;5029853;28;20599;-52
2024/03/29 01:43:02;;;;;;;13.05;7.60;;;;;;;;;;5029596;28;20049;-55
2024/03/29 01:45:29;;;;;;;13.00;7.53;;;;;;;;;;5029983;28;20053;-58
2024/03/29 01:47:56;;;;;;;13.25;7.72;;;;;;;;;;5029934;28;20034;-53
2024/03/29 01:50:22;;;;;;;13.18;7.78;;;;;;;;;;5030060;28;20112;-57
2024/03/29 01:52:48;;;;;;;13.35;7.80;;;;;;;;;;5027947;28;20567;-51
2024/03/29 01:55:14;;;;;;;13.35;7.90;;;;;;;;;;5029324;28;20108;-55
2024/03/29 01:57:41;;;;;;;13.35;7.85;;;;;;;;;;5027923;28;20021;-56
2024/03/29 02:00:08;;;;;;;13.35;7.90;;;;;;;;;;5031253;28;20393;-56
2024/03/29 02:02:34;;;;;;;13.15;7.65;;;;;;;;;;5033137;28;20018;-54
2024/03/29 02:05:00;;;;;;;13.27;7.93;;;;;;;;;;5033296;28;20033;-54
2024/03/29 02:07:26;;;;;;;13.48;8.18;;;;;;;;;;5032279;28;20091;-55
2024/03/29 02:09:52;;;;;;;13.30;7.88;;;;;;;;;;5033870;28;20025;-51
2024/03/29 02:12:18;;;;;;;13.20;7.80;;;;;;;;;;5033204;28;20040;-54
2024/03/29 02:14:44;;;;;;;13.15;7.70;;;;;;;;;;5033000;28;20028;-55
2024/03/29 02:17:10;;;;;;;13.45;8.15;;;;;;;;;;5032677;28;20088;-54
2024/03/29 02:19:36;;;;;;;13.27;7.80;;;;;;;;;;5032733;28;20029;-56
2024/03/29 02:22:06;;;;;;;13.30;7.80;;;;;;;;;;5032576;28;20034;-53
2024/03/29 02:24:32;;;;;;;13.25;7.70;;;;;;;;;;5032934;28;20021;-58
2024/03/29 02:26:58;;;;;;;13.25;7.80;;;;;;;;;;5032410;28;20494;-56
2024/03/29 02:29:24;;;;;;;13.30;7.90;;;;;;;;;;5032512;28;20105;-56
2024/03/29 02:31:50;;;;;;;13.20;7.80;;;;;;;;;;5032778;28;20070;-53
2024/03/29 02:34:17;;;;;;;13.25;7.80;;;;;;;;;;5032739;28;20127;-52
2024/03/29 02:36:44;;;;;;;13.05;7.50;;;;;;;;;;5034830;28;20021;-56
2024/03/29 02:39:10;;;;;;;12.88;7.47;;;;;;;;;;5034188;28;20028;-55
2024/03/29 02:41:36;;;;;;;12.98;7.50;;;;;;;;;;5033731;28;20022;-57
2024/03/29 02:44:02;;;;;;;13.23;7.70;;;;;;;;;;5032527;28;20034;-56
2024/03/29 02:46:28;;;;;;;13.23;7.75;;;;;;;;;;5032598;28;20049;-57
2024/03/29 02:48:54;;;;;;;13.32;7.85;;;;;;;;;;5032790;28;20033;-51
2024/03/29 02:51:20;;;;;;;13.45;7.85;;;;;;;;;;5032263;28;20069;-52
2024/03/29 02:53:46;;;;;;;13.00;7.55;;;;;;;;;;5032288;28;20041;-56
2024/03/29 02:56:14;;;;;;;13.20;7.70;;;;;;;;;;5032257;28;20438;-56
2024/03/29 02:58:40;;;;;;;13.30;7.80;;;;;;;;;;5032160;28;20099;-59
2024/03/29 03:01:06;;;;;;;13.27;7.97;;;;;;;;;;5031533;28;20622;-55
2024/03/29 03:03:32;;;;;;;13.38;7.93;;;;;;;;;;5032169;28;20487;-54
2024/03/29 03:05:58;;;;;;;13.45;8.10;;;;;;;;;;5032166;28;20035;-55
2024/03/29 03:11:09;;;;;;;13.40;8.00;;;;;;;;;;5032166;28;20457;-55
2024/03/29 03:13:35;;;;;;;13.23;7.82;;;;;;;;;;5031746;28;20030;-55
2024/03/29 03:16:01;;;;;;;14.57;9.43;;;;;;;;;;5030962;28;20069;-56
2024/03/29 03:18:27;;;;;;;13.32;8.00;;;;;;;;;;5032366;28;20456;-58
2024/03/29 03:20:54;;;;;;;13.27;7.90;;;;;;;;;;5032336;28;20025;-53
2024/03/29 03:23:20;;;;;;;13.23;7.90;;;;;;;;;;5031888;28;20409;-58
2024/03/29 03:25:53;;;;;;;14.63;9.40;;;;;;;;;;5031794;28;20029;-58
2024/03/29 03:28:19;;;;;;;13.45;8.20;;;;;;;;;;5031910;28;20021;-56
2024/03/29 03:30:45;;;;;;;13.23;7.95;;;;;;;;;;5031675;28;20026;-56
2024/03/29 03:33:11;;;;;;;13.38;8.05;;;;;;;;;;5031546;28;20029;-57
2024/03/29 03:35:37;;;;;;;13.32;8.10;;;;;;;;;;5031408;28;20130;-54
2024/03/29 03:38:03;;;;;;;13.48;8.20;;;;;;;;;;5031683;28;20021;-57
2024/03/29 03:40:29;;;;;;;13.48;8.23;;;;;;;;;;5031502;28;20025;-55
2024/03/29 03:42:55;;;;;;;13.45;8.25;;;;;;;;;;5030795;28;20559;-55
2024/03/29 03:45:22;;;;;;;13.35;8.20;;;;;;;;;;5031864;28;20029;-55
2024/03/29 03:47:48;;;;;;;13.52;8.38;;;;;;;;;;5031036;28;20141;-56
2024/03/29 03:50:15;;;;;;;13.50;8.35;;;;;;;;;;5031015;28;20029;-58
2024/03/29 03:52:41;;;;;;;13.40;8.00;;;;;;;;;;5031012;28;20029;-58
2024/03/29 03:55:07;;;;;;;13.50;8.35;;;;;;;;;;5031096;28;20499;-58
2024/03/29 03:57:33;;;;;;;13.48;8.20;;;;;;;;;;5030880;28;20491;-58
2024/03/29 03:59:59;;;;;;;13.43;8.20;;;;;;;;;;5030941;28;20021;-54
2024/03/29 04:02:26;;;;;;;13.52;8.40;;;;;;;;;;5030687;28;20179;-57
2024/03/29 04:04:52;;;;;;;13.43;8.23;;;;;;;;;;5031016;28;20566;-55
2024/03/29 04:07:18;;;;;;;13.32;7.90;;;;;;;;;;5030909;28;20053;-54
2024/03/29 04:09:44;;;;;;;13.32;8.02;;;;;;;;;;5030834;28;20041;-53
2024/03/29 04:12:10;;;;;;;13.10;7.90;;;;;;;;;;5030531;28;20055;-56
2024/03/29 04:14:36;;;;;;;13.45;8.10;;;;;;;;;;5029897;28;20460;-56
2024/03/29 04:17:02;;;;;;;13.48;8.30;;;;;;;;;;5030375;28;20036;-55
2024/03/29 04:19:27;;;;;;;13.40;8.00;;;;;;;;;;5030535;28;20018;-55
2024/03/29 04:21:53;;;;;;;13.35;8.00;;;;;;;;;;5029819;28;20415;-57
2024/03/29 04:24:19;;;;;;;13.52;8.32;;;;;;;;;;5030067;28;20179;-57
2024/03/29 04:26:47;;;;;;;13.50;8.30;;;;;;;;;;5030333;28;20405;-57
2024/03/29 04:29:14;;;;;;;13.38;8.00;;;;;;;;;;5029933;28;20053;-55
2024/03/29 04:31:40;;;;;;;13.50;8.18;;;;;;;;;;5029633;28;20534;-55
2024/03/29 04:34:06;;;;;;;13.45;8.18;;;;;;;;;;5030222;28;20040;-55
2024/03/29 04:36:32;;;;;;;13.40;8.18;;;;;;;;;;5030542;28;20399;-56
2024/03/29 04:38:58;;;;;;;13.60;8.57;;;;;;;;;;5030552;28;20066;-55
2024/03/29 04:41:24;;;;;;;13.57;8.63;;;;;;;;;;5029968;28;20097;-53
2024/03/29 04:43:50;;;;;;;13.63;8.82;;;;;;;;;;5029796;28;20112;-55
2024/03/29 04:46:16;;;;;;;13.77;9.10;;;;;;;;;;5028512;28;20025;-52
2024/03/29 04:48:43;;;;;;;13.85;9.35;;;;;;;;;;5029646;28;20814;-54
2024/03/29 04:51:09;;;;;;;14.00;9.77;;;;;;;;;;5029897;28;20029;-53
2024/03/29 04:53:37;;;;;;;13.95;9.70;;;;;;;;;;5029841;28;20032;-53
2024/03/29 04:56:03;;;;;;;13.93;9.75;;;;;;;;;;5030142;28;20026;-54
2024/03/29 04:58:29;;;;;;;13.93;9.68;;;;;;;;;;5030213;28;20126;-52
2024/03/29 05:00:55;;;;;;;13.90;9.38;;;;;;;;;;5030237;28;20022;-54
2024/03/29 05:03:22;;;;;;;14.30;10.63;;;;;;;;;;5030791;28;20041;-54
2024/03/29 05:05:49;;;;;;;14.32;10.70;;;;;;;;;;5030077;28;20057;-55
2024/03/29 05:08:15;;;;;;;14.70;11.82;;;;;;;;;;5028620;28;20428;-56
2024/03/29 05:10:42;;;;;;;14.63;11.65;;;;;;;;;;5029661;28;20159;-55
2024/03/29 05:13:08;;;;;;;14.80;12.30;;;;;;;;;;5029284;28;20033;-57
2024/03/29 05:15:34;;;;;;;15.10;12.90;;;;;;;;;;5029031;28;20452;-54
2024/03/29 05:18:00;;;;;;;15.35;13.65;;;;;;;;;;5029549;28;20468;-54
2024/03/29 05:20:26;;;;;;;16.27;14.57;;;;;;;;;;5029905;28;20076;-56
2024/03/29 05:22:52;;;;;;;16.77;15.07;;;;;;;;;;5030539;28;20424;-55
2024/03/29 05:25:18;;;;;;;19.17;17.38;;;;;;;;;;5035941;28;20035;-54
2024/03/29 05:27:44;;;;;;;23.65;21.65;;;;;;;;;;5032232;28;20034;-51
2024/03/29 05:30:10;;;;;;;23.50;21.50;;;;;;;;;;5030945;28;20052;-55
2024/03/29 05:32:36;;;;;;;27.23;25.02;;;;;;;;;;5029488;28;20091;-55
2024/03/29 05:35:02;;;;;;;25.35;23.25;;;;;;;;;;5031687;28;20034;-57
2024/03/29 05:37:28;;;;;;;26.67;24.48;;;;;;;;;;5033364;28;20025;-54
2024/03/29 05:40:03;;;;;;;26.63;24.42;;;;;;;;;;5032187;28;20487;-54
2024/03/29 05:42:30;;;;;;;26.42;24.33;;;;;;;;;;5032077;28;20021;-56
2024/03/29 05:44:56;;;;;;;26.48;24.38;;;;;;;;;;5033347;28;20033;-55
2024/03/29 05:47:22;;;;;;;25.75;23.65;;;;;;;;;;5033384;28;20033;-58
2024/03/29 05:49:48;;;;;;;26.52;24.42;;;;;;;;;;5033385;28;20544;-55
2024/03/29 05:52:15;;;;;;;27.27;25.08;;;;;;;;;;5033125;28;20017;-58
2024/03/29 05:54:41;;;;;;;26.75;24.65;;;;;;;;;;5033073;28;20037;-55
2024/03/29 05:57:08;;;;;;;26.77;24.67;;;;;;;;;;5032857;28;20037;-52
2024/03/29 05:59:34;;;;;;;26.42;24.33;;;;;;;;;;5032687;28;20492;-54
2024/03/29 06:02:00;;;;;;;26.30;24.20;;;;;;;;;;5032912;28;20482;-55
2024/03/29 06:04:32;;;;;;;26.30;24.20;;;;;;;;;;5032940;28;20116;-55
2024/03/29 06:06:58;;;;;;;26.33;24.23;;;;;;;;;;5032803;28;20491;-54
2024/03/29 06:09:25;;;;;;;25.75;23.65;;;;;;;;;;5033044;28;20029;-56
2024/03/29 06:11:51;;;;;;;25.75;23.65;;;;;;;;;;5054682;22;20080;-52
2024/03/29 06:19:46;;;;;;;25.67;23.58;;;;;;;;;;5032773;28;20075;-52
2024/03/29 06:22:12;;;;;;;25.33;23.23;;;;;;;;;;5033055;28;20407;-53
2024/03/29 06:24:39;;;;;;;24.83;22.73;;;;;;;;;;5032796;28;20097;-54
2024/03/29 06:27:05;;;;;;;24.23;22.23;;;;;;;;;;5032975;28;20101;-53
2024/03/29 06:29:31;;;;;;;24.23;22.20;;;;;;;;;;5033104;28;20026;-56
2024/03/29 06:31:58;;;;;;;24.50;22.48;;;;;;;;;;5032969;28;20514;-55
2024/03/29 06:34:24;;;;;;;24.52;22.52;;;;;;;;;;5029546;28;20385;-53
2024/03/29 06:36:50;;;;;;;24.10;22.10;;;;;;;;;;5023932;28;20075;-54
2024/03/29 06:39:17;;;;;;;24.95;22.85;;;;;;;;;;5021044;28;20467;-55
2024/03/29 06:41:43;;;;;;;25.60;23.50;;;;;;;;;;5012634;28;20056;-50
2024/03/29 06:44:09;;;;;;;24.73;22.65;;;;;;;;;;5028521;28;20064;-54
2024/03/29 06:46:35;;;;;;;24.98;22.88;;;;;;;;;;5031212;28;20030;-50
2024/03/29 06:49:01;;;;;;;24.30;22.30;;;;;;;;;;5031253;28;20395;-55
2024/03/29 06:51:27;;;;;;;24.67;22.67;;;;;;;;;;5025801;28;20032;-53
2024/03/29 06:53:53;;;;;;;24.10;22.10;;;;;;;;;;5012252;28;20025;-53
2024/03/29 06:56:19;;;;;;;24.15;22.15;;;;;;;;;;5012327;28;20029;-50
2024/03/29 06:58:45;;;;;;;24.52;22.52;;;;;;;;;;4994178;28;20022;-54
2024/03/29 07:01:11;;;;;;;24.15;22.15;;;;;;;;;;5012097;28;20399;-52
2024/03/29 07:03:37;;;;;;;23.90;21.90;;;;;;;;;;4994550;28;20519;-55
2024/03/29 07:06:03;;;;;;;23.65;21.65;;;;;;;;;;5012230;28;20381;-54
2024/03/29 07:08:29;;;;;;;23.85;21.85;;;;;;;;;;5018252;28;20025;-52
2024/03/29 07:11:01;;;;;;;24.30;22.30;;;;;;;;;;5031809;28;20037;-53
2024/03/29 07:13:31;;;;;;;24.25;22.25;;;;;;;;;;5013726;28;20164;-55
2024/03/29 07:15:57;;;;;;;24.35;22.35;;;;;;;;;;5014321;28;20488;-54
2024/03/29 07:18:23;;;;;;;24.58;22.58;;;;;;;;;;5031717;28;20559;-51
2024/03/29 07:20:50;;;;;;;24.65;22.65;;;;;;;;;;5012547;28;20022;-56
2024/03/29 07:23:16;;;;;;;24.13;22.13;;;;;;;;;;5029748;28;20460;-56
2024/03/29 07:25:45;;;;;;;24.27;22.27;;;;;;;;;;5030042;28;20025;-51
2024/03/29 07:28:14;;;;;;;24.17;22.17;;;;;;;;;;5030834;28;20480;-56
2024/03/29 07:30:40;;;;;;;24.25;22.25;;;;;;;;;;5013711;28;20029;-54
2024/03/29 07:33:06;;;;;;;24.38;22.38;;;;;;;;;;5013491;28;20570;-53
2024/03/29 07:35:32;;;;;;;24.58;22.58;;;;;;;;;;5031421;28;20064;-53
2024/03/29 07:37:59;;;;;;;24.33;22.33;;;;;;;;;;5032454;28;20022;-54
2024/03/29 07:40:25;;;;;;;24.27;22.27;;;;;;;;;;5033712;28;20026;-55
2024/03/29 07:42:51;;;;;;;24.10;22.10;;;;;;;;;;5032861;28;20056;-56
2024/03/29 07:45:17;;;;;;;23.90;21.90;;;;;;;;;;5016881;28;20119;-56
2024/03/29 07:47:43;;;;;;;23.65;21.65;;;;;;;;;;5033246;28;20036;-57
2024/03/29 07:50:10;;;;;;;23.13;21.13;;;;;;;;;;5032071;28;20048;-51
2024/03/29 07:52:36;;;;;;;23.15;21.15;;;;;;;;;;5013771;28;20029;-51
2024/03/29 07:55:02;;;;;;;23.05;21.05;;;;;;;;;;5032179;28;20079;-52
2024/03/29 07:57:28;;;;;;;22.83;20.83;;;;;;;;;;5030484;28;20026;-54
2024/03/29 07:59:54;;;;;;;22.77;20.77;;;;;;;;;;5031052;28;20075;-52
2024/03/29 08:02:20;;;;;;;22.20;20.30;;;;;;;;;;5030824;28;20022;-52
2024/03/29 08:04:46;;;;;;;22.15;20.25;;;;;;;;;;5030719;28;20391;-53
2024/03/29 08:07:12;;;;;;;21.75;19.85;;;;;;;;;;5031097;28;20025;-54
2024/03/29 08:09:41;;;;;;;21.33;19.42;;;;;;;;;;5030793;28;20798;-52
2024/03/29 08:12:07;;;;;;;21.17;19.27;;;;;;;;;;5030668;28;20034;-53
2024/03/29 08:14:33;;;;;;;21.08;19.17;;;;;;;;;;5031035;28;20116;-52
2024/03/29 08:17:04;;;;;;;20.73;18.83;;;;;;;;;;5030739;28;20101;-56
2024/03/29 08:19:30;;;;;;;20.58;18.67;;;;;;;;;;5013043;28;20483;-54
2024/03/29 08:21:56;;;;;;;17.65;15.95;;;;;;;;;;5030763;28;20082;-48
2024/03/29 08:24:22;;;;;;;17.75;16.05;;;;;;;;;;5012741;28;20112;-53
2024/03/29 08:26:48;;;;;;;17.50;15.80;;;;;;;;;;5030537;28;20108;-55
2024/03/29 08:29:14;;;;;;;16.80;15.10;;;;;;;;;;5012781;28;20033;-54
2024/03/29 08:31:40;;;;;;;16.60;14.90;;;;;;;;;;5012640;28;20411;-56
2024/03/29 08:34:07;;;;;;;16.25;14.55;;;;;;;;;;5030131;28;20087;-52
2024/03/29 08:36:33;;;;;;;15.75;14.05;;;;;;;;;;5030303;28;20026;-53
2024/03/29 08:38:59;;;;;;;15.20;13.48;;;;;;;;;;5012546;28;20033;-55
2024/03/29 08:41:25;;;;;;;15.18;13.20;;;;;;;;;;5012469;28;20022;-52
2024/03/29 08:43:51;;;;;;;15.10;12.88;;;;;;;;;;5030151;28;20610;-52
2024/03/29 08:46:17;;;;;;;14.82;12.20;;;;;;;;;;5030249;28;20026;-53
2024/03/29 08:48:43;;;;;;;14.52;11.30;;;;;;;;;;5030165;28;20032;-55
2024/03/29 08:51:10;;;;;;;14.40;11.00;;;;;;;;;;5030120;28;20103;-52
2024/03/29 08:53:36;;;;;;;14.48;11.15;;;;;;;;;;5029956;28;20116;-50
2024/03/29 08:56:02;;;;;;;14.48;11.18;;;;;;;;;;5030263;28;20053;-51
2024/03/29 08:58:28;;;;;;;14.50;11.10;;;;;;;;;;5030002;28;20025;-55
2024/03/29 09:00:55;;;;;;;14.20;10.38;;;;;;;;;;5030103;28;20041;-53
2024/03/29 09:03:21;;;;;;;14.10;10.10;;;;;;;;;;5012314;28;20035;-53
2024/03/29 09:05:47;;;;;;;14.10;10.07;;;;;;;;;;5030274;28;20057;-51
2024/03/29 09:08:13;;;;;;;14.10;9.90;;;;;;;;;;5029773;28;20049;-51
2024/03/29 09:10:39;;;;;;;13.95;9.60;;;;;;;;;;5030049;28;20037;-53
2024/03/29 09:13:07;;;;;;;13.88;9.45;;;;;;;;;;5029461;28;20052;-53
2024/03/29 09:15:33;;;;;;;13.80;9.02;;;;;;;;;;5029806;28;20021;-55
2024/03/29 09:18:03;;;;;;;13.60;8.77;;;;;;;;;;5029719;28;20029;-54
2024/03/29 09:20:29;;;;;;;13.50;8.30;;;;;;;;;;5013408;28;20147;-59
2024/03/29 09:22:54;;;;;;;13.38;8.10;;;;;;;;;;5012783;28;20061;-52
2024/03/29 09:25:20;;;;;;;13.50;8.40;;;;;;;;;;5012694;28;20025;-53
2024/03/29 09:27:48;;;;;;;13.57;8.68;;;;;;;;;;5029715;28;20033;-54
2024/03/29 09:30:15;;;;;;;13.75;8.80;;;;;;;;;;5029815;28;20380;-52
2024/03/29 09:32:41;;;;;;;13.27;7.97;;;;;;;;;;5029613;28;20040;-55
2024/03/29 09:35:07;;;;;;;13.18;7.82;;;;;;;;;;5029810;28;20096;-53
2024/03/29 09:37:36;;;;;;;13.10;7.63;;;;;;;;;;5029418;28;20045;-54
2024/03/29 09:40:03;;;;;;;13.15;8.00;;;;;;;;;;5029391;28;20018;-55
2024/03/29 09:42:31;;;;;;;13.27;7.78;;;;;;;;;;5027864;28;20493;-56
2024/03/29 09:44:58;;;;;;;12.82;7.57;;;;;;;;;;5028595;28;20021;-55
2024/03/29 09:47:24;;;;;;;12.63;7.38;;;;;;;;;;5029190;28;20041;-54
2024/03/29 09:49:51;;;;;;;12.52;7.32;;;;;;;;;;5029153;28;20068;-52
2024/03/29 09:52:17;;;;;;;12.32;7.18;;;;;;;;;;5029074;28;20083;-53
2024/03/29 09:54:43;;;;;;;12.95;7.50;;;;;;;;;;5028912;28;20036;-52
2024/03/29 09:57:10;;;;;;;12.98;7.60;;;;;;;;;;5029094;28;20022;-54
2024/03/29 09:59:37;;;;;;;13.68;8.40;;;;;;;;;;5027864;28;20029;-57
2024/03/29 10:02:04;;;;;;;13.07;7.65;;;;;;;;;;5029235;28;20060;-55
2024/03/29 10:04:31;;;;;;;13.20;7.80;;;;;;;;;;5029170;28;20022;-53
2024/03/29 10:06:57;;;;;;;12.88;7.50;;;;;;;;;;5027984;28;20044;-52
2024/03/29 10:09:27;;;;;;;12.90;7.53;;;;;;;;;;5029217;28;20026;-53
2024/03/29 10:11:53;;;;;;;13.30;7.80;;;;;;;;;;5028919;28;20037;-50
2024/03/29 10:14:22;;;;;;;13.05;7.75;;;;;;;;;;5029209;28;20033;-50
2024/03/29 10:16:48;;;;;;;13.80;9.00;;;;;;;;;;5026959;28;20113;-50
2024/03/29 10:19:14;;;;;;;13.60;8.70;;;;;;;;;;5009570;28;20160;-53
2024/03/29 10:21:40;;;;;;;13.68;9.10;;;;;;;;;;5012195;28;20030;-53
2024/03/29 10:24:14;;;;;;;13.90;9.63;;;;;;;;;;5008510;28;20148;-49
2024/03/29 10:26:40;;;;;;;13.98;9.73;;;;;;;;;;5032791;28;20511;-56
2024/03/29 10:29:06;;;;;;;14.20;9.90;;;;;;;;;;5032416;28;20022;-54
2024/03/29 10:31:38;;;;;;;13.75;9.20;;;;;;;;;;5014618;28;20472;-49
2024/03/29 10:34:08;;;;;;;13.68;8.93;;;;;;;;;;5032144;28;20029;-54
2024/03/29 10:36:35;;;;;;;13.68;9.15;;;;;;;;;;5032693;28;20036;-55
2024/03/29 10:39:12;;;;;;;13.88;9.43;;;;;;;;;;5032641;28;20029;-54
2024/03/29 10:41:42;;;;;;;13.75;9.07;;;;;;;;;;5032284;28;20021;-54
2024/03/29 10:44:12;;;;;;;13.57;8.95;;;;;;;;;;5032408;28;20052;-52
2024/03/29 10:46:39;;;;;;;13.60;8.80;;;;;;;;;;5032258;28;20108;-53
2024/03/29 10:49:07;;;;;;;13.73;9.13;;;;;;;;;;5032666;28;20095;-54
2024/03/29 10:51:34;;;;;;;13.60;8.70;;;;;;;;;;5032464;28;20025;-51
2024/03/29 10:54:01;;;;;;;13.57;8.60;;;;;;;;;;5032262;28;20664;-54
2024/03/29 10:56:28;;;;;;;13.55;8.70;;;;;;;;;;5032926;28;20026;-55
2024/03/29 10:58:57;;;;;;;13.90;8.57;;;;;;;;;;5032143;28;20037;-54
2024/03/29 11:01:23;;;;;;;13.52;8.65;;;;;;;;;;5032299;28;20025;-55
2024/03/29 11:03:55;;;;;;;13.48;8.45;;;;;;;;;;5032490;28;20459;-54
2024/03/29 11:06:24;;;;;;;13.30;8.07;;;;;;;;;;5032056;28;20025;-58
2024/03/29 11:08:51;;;;;;;13.43;8.30;;;;;;;;;;5031856;28;20076;-56
2024/03/29 11:11:17;;;;;;;13.30;7.80;;;;;;;;;;5031422;28;20117;-51
2024/03/29 11:13:54;;;;;;;12.60;7.32;;;;;;;;;;5031139;28;20032;-51
2024/03/29 11:16:20;;;;;;;12.43;7.20;;;;;;;;;;5011858;28;20029;-55
2024/03/29 11:18:49;;;;;;;13.38;7.90;;;;;;;;;;5011801;28;20793;-55
2024/03/29 11:21:20;;;;;;;13.00;7.70;;;;;;;;;;5011783;28;20412;-54
2024/03/29 11:23:49;;;;;;;13.00;7.70;;;;;;;;;;5011382;28;20076;-56
2024/03/29 11:26:16;;;;;;;13.30;7.90;;;;;;;;;;4994195;28;20026;-54
2024/03/29 11:28:48;;;;;;;12.45;7.28;;;;;;;;;;4994084;28;20072;-51
2024/03/29 11:31:15;;;;;;;11.93;6.95;;;;;;;;;;5011613;28;20420;-54
2024/03/29 11:33:44;;;;;;;13.05;7.68;;;;;;;;;;5011145;28;20026;-52
2024/03/29 11:36:15;;;;;;;13.15;7.80;;;;;;;;;;5018543;28;20021;-53
2024/03/29 11:38:42;;;;;;;13.30;7.90;;;;;;;;;;5031109;28;20029;-55
2024/03/29 11:41:11;;;;;;;12.90;7.57;;;;;;;;;;5031054;28;20431;-53
2024/03/29 11:43:37;;;;;;;13.57;8.40;;;;;;;;;;5030324;28;20108;-54
2024/03/29 11:46:06;;;;;;;13.55;8.43;;;;;;;;;;5031455;28;20036;-54
2024/03/29 11:48:32;;;;;;;13.32;7.90;;;;;;;;;;5013363;28;20088;-56
2024/03/29 11:50:59;;;;;;;13.30;7.88;;;;;;;;;;5030890;28;20029;-56
2024/03/29 11:53:27;;;;;;;13.05;7.60;;;;;;;;;;5012601;28;20467;-54
2024/03/29 11:55:53;;;;;;;12.98;7.60;;;;;;;;;;5030563;28;20048;-52
2024/03/29 11:58:21;;;;;;;13.05;7.60;;;;;;;;;;5030803;28;20037;-52
2024/03/29 12:00:48;;;;;;;13.20;7.70;;;;;;;;;;5030766;28;20112;-54
2024/03/29 12:03:14;;;;;;;13.18;7.80;;;;;;;;;;5031012;28;20036;-54
2024/03/29 12:05:40;;;;;;;13.00;7.60;;;;;;;;;;5031000;28;20060;-55
2024/03/29 12:08:07;;;;;;;12.50;7.30;;;;;;;;;;5031145;28;20051;-55
2024/03/29 12:10:33;;;;;;;12.30;7.13;;;;;;;;;;5048289;22;20033;-58
2024/03/29 12:13:00;;;;;;;12.05;7.07;;;;;;;;;;5008702;28;20041;-57
2024/03/29 12:15:26;;;;;;;12.80;7.40;;;;;;;;;;5008998;28;20022;-59
2024/03/29 12:17:58;;;;;;;13.10;7.93;;;;;;;;;;5009219;28;20170;-58
2024/03/29 12:20:24;;;;;;;12.77;7.43;;;;;;;;;;5009874;28;20392;-55
2024/03/29 12:22:50;;;;;;;12.80;7.50;;;;;;;;;;5009793;28;20034;-56
2024/03/29 12:25:17;;;;;;;12.80;7.50;;;;;;;;;;5010041;28;20033;-57
2024/03/29 12:27:44;;;;;;;12.40;7.22;;;;;;;;;;5009864;28;20152;-59
2024/03/29 12:30:10;;;;;;;13.02;7.60;;;;;;;;;;5009952;28;20107;-54
2024/03/29 12:32:36;;;;;;;13.35;7.90;;;;;;;;;;5009548;28;20030;-50
2024/03/29 12:35:10;;;;;;;13.35;7.97;;;;;;;;;;5008674;28;20052;-54
2024/03/29 12:37:36;;;;;;;13.40;8.15;;;;;;;;;;5009713;28;20046;-56
2024/03/29 12:40:11;;;;;;;13.40;8.25;;;;;;;;;;5009778;28;20065;-51
2024/03/29 12:42:37;;;;;;;13.45;8.20;;;;;;;;;;5008021;28;20084;-58
2024/03/29 12:45:03;;;;;;;13.52;8.50;;;;;;;;;;5009397;28;20026;-59
2024/03/29 12:47:30;;;;;;;13.50;8.25;;;;;;;;;;4993010;28;20084;-58
2024/03/29 12:49:56;;;;;;;19.58;8.50;;;;;;;;;;5008409;28;20049;-56
2024/03/29 12:52:22;;;;;;;13.70;8.80;;;;;;;;;;5009533;28;20409;-58
2024/03/29 12:54:48;;;;;;;13.15;7.60;;;;;;;;;;5008043;28;20022;-54
2024/03/29 12:57:14;;;;;;;13.27;7.80;;;;;;;;;;5008748;28;20044;-58
2024/03/29 12:59:40;;;;;;;13.25;7.80;;;;;;;;;;5008383;28;20056;-57
2024/03/29 13:02:06;;;;;;;13.30;7.93;;;;;;;;;;5009340;28;20022;-57
2024/03/29 13:04:32;;;;;;;13.35;7.88;;;;;;;;;;5007986;28;20064;-59
2024/03/29 13:06:58;;;;;;;13.02;7.60;;;;;;;;;;5009200;28;20053;-58
2024/03/29 13:09:24;;;;;;;12.70;7.40;;;;;;;;;;4656913;28;9999766;-59
2024/03/29 13:11:50;;;;;;;12.90;7.60;;;;;;;;;;5004660;28;20181;-56
2024/03/29 13:14:16;;;;;;;12.15;7.05;;;;;;;;;;5007572;28;20029;-56
2024/03/29 13:16:42;;;;;;;12.77;7.45;;;;;;;;;;5008902;28;20026;-55
2024/03/29 13:19:08;;;;;;;13.88;8.63;;;;;;;;;;4992627;28;20730;-57
2024/03/29 13:21:34;;;;;;;12.25;7.15;;;;;;;;;;4989701;28;20027;-57
2024/03/29 13:24:00;;;;;;;12.10;7.10;;;;;;;;;;4989462;28;20029;-57
2024/03/29 13:26:28;;;;;;;12.30;7.20;;;;;;;;;;4995778;28;20058;-58
2024/03/29 13:28:54;;;;;;;14.55;8.85;;;;;;;;;;5009682;28;20026;-57
2024/03/29 13:31:20;;;;;;;13.07;7.75;;;;;;;;;;5008022;28;20681;-49
2024/03/29 13:33:47;;;;;;;12.95;7.55;;;;;;;;;;5007164;28;20026;-56
2024/03/29 13:36:13;;;;;;;13.30;8.00;;;;;;;;;;4999747;28;20670;-58
2024/03/29 13:38:39;;;;;;;13.60;8.80;;;;;;;;;;4987132;28;20074;-57
2024/03/29 13:41:08;;;;;;;13.48;8.43;;;;;;;;;;4989640;28;20053;-57
2024/03/29 13:43:38;;;;;;;13.65;8.80;;;;;;;;;;4996754;28;20032;-52
2024/03/29 13:46:06;;;;;;;13.70;9.10;;;;;;;;;;5008947;28;20101;-55
2024/03/29 13:48:32;;;;;;;13.80;9.30;;;;;;;;;;5007753;28;20066;-55
2024/03/29 13:50:59;;;;;;;13.90;9.30;;;;;;;;;;5009276;28;20117;-56
2024/03/29 13:53:25;;;;;;;13.80;9.20;;;;;;;;;;5007468;28;20029;-55
2024/03/29 13:55:51;;;;;;;18.35;9.70;;;;;;;;;;5008996;28;20029;-59
2024/03/29 13:58:17;;;;;;;13.70;9.10;;;;;;;;;;5011808;28;20025;-55
2024/03/29 14:00:43;;;;;;;13.88;9.40;;;;;;;;;;5010996;28;20331;-56
2024/03/29 14:03:09;;;;;;;13.75;9.10;;;;;;;;;;5009767;28;20026;-57
2024/03/29 14:05:36;;;;;;;13.75;9.20;;;;;;;;;;5011154;28;20446;-54
2024/03/29 14:08:02;;;;;;;13.93;9.70;;;;;;;;;;5011556;28;20026;-59
2024/03/29 14:10:28;;;;;;;14.05;9.98;;;;;;;;;;5010849;28;20022;-57
2024/03/29 14:12:54;;;;;;;13.95;9.75;;;;;;;;;;5011144;28;20491;-55
2024/03/29 14:15:20;;;;;;;13.98;9.90;;;;;;;;;;5011635;28;20022;-53
2024/03/29 14:17:46;;;;;;;13.88;9.55;;;;;;;;;;5013201;28;20037;-59
2024/03/29 14:20:12;;;;;;;14.00;9.90;;;;;;;;;;5012566;28;20503;-58
2024/03/29 14:22:39;;;;;;;14.00;9.80;;;;;;;;;;5012542;28;20030;-58
2024/03/29 14:25:10;;;;;;;14.00;9.90;;;;;;;;;;5012708;28;20033;-55
2024/03/29 14:27:45;;;;;;;13.90;9.65;;;;;;;;;;5012723;28;20025;-56
2024/03/29 14:30:12;;;;;;;13.93;9.55;;;;;;;;;;5012876;28;20038;-54